Time;durP1;ratioP1;P1;durP2;ratioP2;P2;SDS_P1;SDS_P2;PMS_P1;PMS_P2;Temp;Humidity;BMP_temperature;BMP_pressure;BME280_temperature;BME280_humidity;BME280_pressure;Samples;Min_cycle;Max_cycle;Signal;HPM_P1;HPM_P2
2023/04/21 00:00:09;;;;;;;;;;;;;;;11.05;77.27;98651.91;4469470;32;20442;-66
2023/04/21 00:02:38;;;;;;;;;;;;;;;11.03;77.22;98657.31;4469070;32;20472;-65
2023/04/21 00:05:12;;;;;;;;;;;;;;;11.04;77.27;98658.97;4469168;32;20067;-66
2023/04/21 00:07:40;;;;;;;;;;;;;;;10.95;76.92;98654.56;4470254;32;19999;-66
2023/04/21 00:10:08;;;;;;;;;;;;;;;10.96;77.07;98656.22;4471087;32;19984;-66
2023/04/21 00:12:35;;;;;;;;;;;;;;;10.93;76.32;98646.84;4470872;32;20002;-66
2023/04/21 00:15:03;;;;;;;;;;;;;;;10.91;76.50;98658.44;4470924;32;19972;-66
2023/04/21 00:17:31;;;;;;;;;;;;;;;10.97;75.60;98652.63;4469114;32;19995;-65
2023/04/21 00:19:58;;;;;;;;;;;;;;;10.95;75.76;98655.41;4470990;32;19976;-66
2023/04/21 00:22:26;;;;;;;;;;;;;;;10.91;75.80;98653.19;4470643;32;19976;-65
2023/04/21 00:24:53;;;;;;;;;;;;;;;10.75;76.71;98646.75;4471198;32;20454;-66
2023/04/21 00:27:20;;;;;;;;;;;;;;;10.74;76.32;98647.72;4470979;32;20339;-66
2023/04/21 00:29:48;;;;;;;;;;;;;;;10.72;76.00;98641.81;4470890;32;19980;-65
2023/04/21 00:32:15;;;;;;;;;;;;;;;10.72;75.88;98649.66;4470853;32;19984;-66
2023/04/21 00:34:42;;;;;;;;;;;;;;;10.73;76.00;98646.06;4470756;32;20372;-66
2023/04/21 00:37:11;;;;;;;;;;;;;;;10.67;76.29;98646.63;4470771;32;20436;-66
2023/04/21 00:39:38;;;;;;;;;;;;;;;10.62;76.10;98647.03;4470651;32;20049;-66
2023/04/21 00:42:06;;;;;;;;;;;;;;;10.56;76.60;98644.16;4470793;32;19972;-66
2023/04/21 00:44:34;;;;;;;;;;;;;;;10.49;76.58;98641.28;4470867;32;19975;-65
2023/04/21 00:47:02;;;;;;;;;;;;;;;10.60;75.38;98649.00;4470583;32;19992;-66
2023/04/21 00:49:30;;;;;;;;;;;;;;;10.47;76.45;98646.66;4470802;32;20033;-66
2023/04/21 00:51:58;;;;;;;;;;;;;;;10.44;76.63;98641.69;4470783;32;20047;-66
2023/04/21 00:54:25;;;;;;;;;;;;;;;10.39;76.69;98638.66;4470779;32;19964;-66
2023/04/21 00:56:54;;;;;;;;;;;;;;;10.37;76.99;98638.00;4469325;32;20037;-66
2023/04/21 00:59:21;;;;;;;;;;;;;;;10.28;77.62;98641.41;4470894;32;20377;-66
2023/04/21 01:01:48;;;;;;;;;;;;;;;10.21;78.13;98638.50;4470809;32;19994;-66
2023/04/21 01:04:16;;;;;;;;;;;;;;;10.23;77.77;98641.00;4470718;32;19976;-66
2023/04/21 01:06:44;;;;;;;;;;;;;;;10.23;78.06;98635.75;4470368;32;20035;-66
2023/04/21 01:09:11;;;;;;;;;;;;;;;10.12;78.96;98636.72;4470627;32;19990;-66
2023/04/21 01:11:39;;;;;;;;;;;;;;;10.09;79.13;98643.03;4470381;32;19980;-66
2023/04/21 01:14:07;;;;;;;;;;;;;;;10.14;77.55;98634.78;4470679;32;20036;-65
2023/04/21 01:16:35;;;;;;;;;;;;;;;10.16;77.06;98637.25;4470716;32;20050;-66
2023/04/21 01:19:04;;;;;;;;;;;;;;;10.13;76.21;98628.72;4470109;32;19980;-66
2023/04/21 01:21:37;;;;;;;;;;;;;;;10.23;74.55;98639.19;4470674;32;19975;-65
2023/04/21 01:24:05;;;;;;;;;;;;;;;10.32;72.95;98628.87;4470615;32;19980;-66
2023/04/21 01:26:32;;;;;;;;;;;;;;;10.35;70.89;98629.44;4470462;32;20031;-66
2023/04/21 01:29:00;;;;;;;;;;;;;;;10.33;71.07;98631.38;4470562;32;19984;-66
2023/04/21 01:31:28;;;;;;;;;;;;;;;10.37;69.81;98632.75;4470348;32;20031;-66
2023/04/21 01:33:55;;;;;;;;;;;;;;;10.37;69.97;98624.06;4470683;32;19987;-66
2023/04/21 01:36:22;;;;;;;;;;;;;;;10.40;69.46;98623.78;4470259;32;19995;-66
2023/04/21 01:38:51;;;;;;;;;;;;;;;10.30;70.53;98623.78;4470266;32;19998;-65
2023/04/21 01:41:19;;;;;;;;;;;;;;;10.17;71.77;98629.28;4470620;32;20044;-66
2023/04/21 01:43:46;;;;;;;;;;;;;;;10.07;72.24;98623.22;4470247;32;19977;-66
2023/04/21 01:46:14;;;;;;;;;;;;;;;10.04;72.85;98624.31;4470347;32;20397;-66
2023/04/21 01:48:42;;;;;;;;;;;;;;;10.03;73.07;98617.41;4470138;32;20036;-66
2023/04/21 01:51:09;;;;;;;;;;;;;;;10.03;73.43;98622.66;4470318;32;19998;-66
2023/04/21 01:53:37;;;;;;;;;;;;;;;10.01;73.62;98618.50;4470258;32;19994;-66
2023/04/21 01:56:06;;;;;;;;;;;;;;;9.98;74.16;98618.78;4470232;32;19980;-66
2023/04/21 01:58:33;;;;;;;;;;;;;;;9.95;74.65;98625.16;4470205;32;19980;-66
2023/04/21 02:01:01;;;;;;;;;;;;;;;10.01;74.05;98628.97;4470183;32;19982;-66
2023/04/21 02:03:29;;;;;;;;;;;;;;;10.04;73.51;98624.31;4470191;32;20501;-66
2023/04/21 02:05:56;;;;;;;;;;;;;;;10.05;73.50;98626.00;4470161;32;19988;-66
2023/04/21 02:08:23;;;;;;;;;;;;;;;10.08;73.14;98625.72;4470215;32;20414;-66
2023/04/21 02:10:51;;;;;;;;;;;;;;;10.12;72.89;98631.47;4470315;32;20311;-66
2023/04/21 02:13:18;;;;;;;;;;;;;;;10.11;72.76;98628.06;4469993;32;20024;-66
2023/04/21 02:15:46;;;;;;;;;;;;;;;10.17;72.28;98625.84;4470273;32;20006;-66
2023/04/21 02:18:15;;;;;;;;;;;;;;;10.12;72.01;98629.69;4469806;32;19984;-66
2023/04/21 02:20:43;;;;;;;;;;;;;;;10.18;71.45;98627.50;4470053;32;20314;-66
2023/04/21 02:23:12;;;;;;;;;;;;;;;10.17;71.28;98625.84;4470158;32;20033;-66
2023/04/21 02:25:39;;;;;;;;;;;;;;;10.18;71.21;98624.88;4470083;32;20022;-65
2023/04/21 02:28:07;;;;;;;;;;;;;;;10.24;70.01;98626.94;4469832;32;19994;-66
2023/04/21 02:30:34;;;;;;;;;;;;;;;10.23;70.18;98631.34;4469330;32;20029;-66
2023/04/21 02:33:02;;;;;;;;;;;;;;;10.28;69.37;98630.94;4469760;32;19968;-65
2023/04/21 02:35:30;;;;;;;;;;;;;;;10.33;68.99;98628.75;4469966;32;20334;-66
2023/04/21 02:37:57;;;;;;;;;;;;;;;10.30;68.71;98634.25;4469837;32;19995;-65
2023/04/21 02:40:25;;;;;;;;;;;;;;;10.43;67.78;98632.19;4469795;32;19972;-66
2023/04/21 02:42:52;;;;;;;;;;;;;;;10.37;68.01;98634.53;4470057;32;19991;-65
2023/04/21 02:45:19;;;;;;;;;;;;;;;10.30;68.22;98629.81;4469913;32;19976;-65
2023/04/21 02:47:47;;;;;;;;;;;;;;;10.35;68.11;98632.06;4470051;32;19998;-66
2023/04/21 02:50:15;;;;;;;;;;;;;;;10.26;68.29;98628.44;4469829;32;19980;-66
2023/04/21 02:52:42;;;;;;;;;;;;;;;10.17;68.57;98629.28;4469810;32;19986;-65
2023/04/21 02:55:10;;;;;;;;;;;;;;;10.21;68.45;98635.88;4469758;32;19977;-66
2023/04/21 02:57:38;;;;;;;;;;;;;;;10.19;68.29;98636.97;4469925;32;19984;-66
2023/04/21 03:00:06;;;;;;;;;;;;;;;10.18;68.48;98633.56;4469587;32;20033;-66
2023/04/21 03:02:33;;;;;;;;;;;;;;;10.11;69.15;98633.28;4469952;32;20076;-66
2023/04/21 03:05:03;;;;;;;;;;;;;;;10.05;69.52;98640.84;4469525;32;20044;-66
2023/04/21 03:07:31;;;;;;;;;;;;;;;9.97;69.95;98640.72;4469832;32;20459;-65
2023/04/21 03:09:58;;;;;;;;;;;;;;;9.90;70.04;98638.63;4469680;32;20428;-66
2023/04/21 03:12:26;;;;;;;;;;;;;;;9.88;70.28;98639.72;4469904;32;20045;-65
2023/04/21 03:14:54;;;;;;;;;;;;;;;9.86;70.09;98636.44;4469573;32;20000;-65
2023/04/21 03:17:21;;;;;;;;;;;;;;;9.79;70.42;98638.75;4469374;32;20000;-66
2023/04/21 03:19:50;;;;;;;;;;;;;;;9.69;71.28;98646.59;4469854;32;20010;-65
2023/04/21 03:22:17;;;;;;;;;;;;;;;9.67;70.99;98642.44;4469698;32;20096;-66
2023/04/21 03:24:44;;;;;;;;;;;;;;;9.65;71.44;98639.97;4468521;32;20398;-65
2023/04/21 03:27:12;;;;;;;;;;;;;;;9.68;71.26;98639.69;4469960;32;19980;-66
2023/04/21 03:29:39;;;;;;;;;;;;;;;9.58;71.67;98636.22;4469227;32;19981;-66
2023/04/21 03:32:07;;;;;;;;;;;;;;;9.57;71.65;98639.81;4469934;32;20457;-66
2023/04/21 03:34:35;;;;;;;;;;;;;;;9.54;71.17;98637.47;4469679;32;20311;-66
2023/04/21 03:37:03;;;;;;;;;;;;;;;9.50;71.57;98642.13;4469858;32;19984;-65
2023/04/21 03:39:31;;;;;;;;;;;;;;;9.49;71.37;98643.09;4469134;32;19994;-66
2023/04/21 03:41:58;;;;;;;;;;;;;;;9.41;72.19;98638.50;4469628;32;19979;-66
2023/04/21 03:44:28;;;;;;;;;;;;;;;9.36;72.54;98635.47;4469558;32;20395;-66
2023/04/21 03:46:56;;;;;;;;;;;;;;;9.35;72.22;98636.44;4469365;32;20029;-66
2023/04/21 03:49:24;;;;;;;;;;;;;;;9.47;71.35;98641.56;4469364;32;20297;-66
2023/04/21 03:51:51;;;;;;;;;;;;;;;9.55;71.26;98644.34;4469348;32;19984;-65
2023/04/21 03:54:18;;;;;;;;;;;;;;;9.68;69.91;98646.72;4469100;32;19988;-66
2023/04/21 03:56:46;;;;;;;;;;;;;;;9.74;69.53;98638.34;4469304;32;20048;-65
2023/04/21 03:59:13;;;;;;;;;;;;;;;9.92;68.26;98646.34;4469150;32;19981;-65
2023/04/21 04:01:41;;;;;;;;;;;;;;;9.92;68.23;98647.16;4469044;32;19988;-66
2023/04/21 04:04:08;;;;;;;;;;;;;;;9.93;68.15;98645.37;4469053;32;19977;-66
2023/04/21 04:06:36;;;;;;;;;;;;;;;9.97;67.58;98644.16;4468874;32;20055;-66
2023/04/21 04:09:04;;;;;;;;;;;;;;;10.06;66.30;98656.41;4468906;32;20329;-66
2023/04/21 04:11:31;;;;;;;;;;;;;;;10.15;66.08;98657.38;4468871;32;19990;-65
2023/04/21 04:13:59;;;;;;;;;;;;;;;10.25;65.66;98657.38;4468917;32;19999;-65
2023/04/21 04:16:27;;;;;;;;;;;;;;;10.29;65.68;98661.38;4461749;32;19987;-65
2023/04/21 04:18:55;;;;;;;;;;;;;;;10.31;65.48;98669.94;4468738;32;19980;-65
2023/04/21 04:21:23;;;;;;;;;;;;;;;10.29;66.11;98666.63;4468402;32;19984;-66
2023/04/21 04:23:51;;;;;;;;;;;;;;;10.25;66.27;98665.22;4468730;32;19980;-66
2023/04/21 04:26:19;;;;;;;;;;;;;;;10.39;66.19;98664.84;4468604;32;20011;-65
2023/04/21 04:28:47;;;;;;;;;;;;;;;10.40;66.35;98665.69;4468563;32;20118;-65
2023/04/21 04:31:15;;;;;;;;;;;;;;;10.48;66.05;98669.25;4467783;32;20033;-65
2023/04/21 04:33:43;;;;;;;;;;;;;;;10.56;66.21;98675.59;4468777;32;20039;-66
2023/04/21 04:36:11;;;;;;;;;;;;;;;10.64;65.89;98667.87;4467999;32;20463;-65
2023/04/21 04:38:40;;;;;;;;;;;;;;;10.68;65.89;98674.50;4466110;32;20002;-65
2023/04/21 04:41:08;;;;;;;;;;;;;;;10.75;66.45;98669.50;4466286;32;20369;-66
2023/04/21 04:43:37;;;;;;;;;;;;;;;10.84;65.71;98681.78;4468232;32;20086;-66
2023/04/21 04:46:05;;;;;;;;;;;;;;;10.91;65.48;98676.78;4466627;32;20040;-66
2023/04/21 04:48:33;;;;;;;;;;;;;;;10.97;65.54;98684.91;4469037;32;19995;-66
2023/04/21 04:51:01;;;;;;;;;;;;;;;11.05;64.85;98671.09;4467102;32;20048;-66
2023/04/21 04:53:28;;;;;;;;;;;;;;;11.09;64.70;98676.88;4468061;32;19977;-66
2023/04/21 04:55:57;;;;;;;;;;;;;;;11.24;64.73;98674.63;4470130;32;20043;-66
2023/04/21 04:58:25;;;;;;;;;;;;;;;11.30;64.12;98680.13;4468833;32;20021;-66
2023/04/21 05:00:53;;;;;;;;;;;;;;;11.35;63.97;98687.56;4466484;32;19973;-66
2023/04/21 05:03:20;;;;;;;;;;;;;;;11.44;63.43;98678.00;4469269;32;19992;-66
2023/04/21 05:05:48;;;;;;;;;;;;;;;11.50;63.58;98678.22;4466772;32;19987;-66
2023/04/21 05:08:15;;;;;;;;;;;;;;;11.58;62.88;98676.69;4466740;32;20011;-66
2023/04/21 05:10:44;;;;;;;;;;;;;;;11.62;63.45;98680.69;4471475;32;19996;-66
2023/04/21 05:13:11;;;;;;;;;;;;;;;11.66;62.68;98679.44;4468854;31;214339;-66
2023/04/21 05:15:40;;;;;;;;;;;;;;;11.76;62.59;98682.78;4476841;32;19993;-66
2023/04/21 05:18:09;;;;;;;;;;;;;;;11.80;63.15;98681.53;4469397;32;20007;-66
2023/04/21 05:20:39;;;;;;;;;;;;;;;11.85;62.15;98684.56;4467137;32;20507;-66
